createdAt,value
2022-11-14T00:00:47.212Z,12.03
2022-11-14T00:03:32.636Z,14.37
2022-11-14T00:06:17.609Z,14.47
2022-11-14T00:09:03.391Z,13.23
2022-11-14T00:11:48.845Z,16.43
2022-11-14T00:14:34.181Z,13.30
2022-11-14T00:17:19.324Z,14.63
2022-11-14T00:20:06.814Z,12.83
2022-11-14T00:22:52.359Z,13.03
2022-11-14T00:25:38.189Z,13.00
2022-11-14T00:28:23.394Z,13.77
2022-11-14T00:31:10.327Z,18.93
2022-11-14T00:33:55.887Z,16.93
2022-11-14T00:36:40.958Z,18.63
2022-11-14T00:39:26.369Z,26.20
2022-11-14T00:42:11.606Z,17.30
2022-11-14T00:44:56.797Z,15.60
2022-11-14T00:47:42.280Z,15.97
2022-11-14T00:50:27.457Z,14.40
2022-11-14T00:53:13.298Z,14.47
2022-11-14T00:55:58.906Z,14.93
2022-11-14T00:58:44.992Z,15.43
2022-11-14T01:01:30.198Z,13.67
2022-11-14T01:04:15.421Z,13.07
2022-11-14T01:07:00.764Z,15.20
2022-11-14T01:09:45.886Z,12.97
2022-11-14T01:12:31.069Z,12.43
2022-11-14T01:15:16.555Z,11.27
2022-11-14T01:18:01.656Z,11.73
2022-11-14T01:20:48.025Z,13.53
2022-11-14T01:23:33.320Z,12.20
2022-11-14T01:26:18.451Z,13.27
2022-11-14T01:29:03.549Z,12.90
2022-11-14T01:31:49.449Z,13.03
2022-11-14T01:34:34.644Z,11.73
2022-11-14T01:37:21.017Z,11.43
2022-11-14T01:40:06.897Z,11.60
2022-11-14T01:43:18.665Z,11.50
2022-11-14T01:46:14.659Z,11.53
2022-11-14T01:49:24.082Z,10.83
2022-11-14T01:52:19.831Z,12.67
2022-11-14T01:55:08.108Z,10.60
2022-11-14T01:57:53.642Z,11.70
2022-11-14T02:00:39.410Z,12.67
2022-11-14T02:03:25.071Z,11.67
2022-11-14T02:06:14.799Z,10.73
2022-11-14T02:09:04.437Z,10.67
2022-11-14T02:11:51.914Z,11.27
2022-11-14T02:14:38.543Z,10.27
2022-11-14T02:17:30.015Z,11.47
2022-11-14T02:20:24.807Z,11.17
2022-11-14T02:23:12.332Z,11.57
2022-11-14T02:25:58.124Z,11.13
2022-11-14T02:28:43.156Z,11.30
2022-11-14T02:31:28.629Z,10.97
2022-11-14T02:34:16.678Z,9.97
2022-11-14T02:37:02.023Z,10.20
2022-11-14T02:39:48.230Z,10.13
2022-11-14T02:42:33.789Z,10.77
2022-11-14T02:45:21.020Z,10.80
2022-11-14T02:48:06.595Z,12.53
2022-11-14T02:50:52.063Z,11.47
2022-11-14T02:53:37.326Z,10.87
2022-11-14T02:56:25.177Z,12.07
2022-11-14T02:59:10.332Z,11.23
2022-11-14T03:01:55.722Z,12.53
2022-11-14T03:04:40.884Z,10.83
2022-11-14T03:07:26.241Z,11.10
2022-11-14T03:10:12.014Z,10.53
2022-11-14T03:12:58.138Z,10.23
2022-11-14T03:15:43.483Z,10.90
2022-11-14T03:18:29.262Z,9.70
2022-11-14T03:21:20.261Z,9.40
2022-11-14T03:24:06.005Z,9.27
2022-11-14T03:26:51.336Z,8.57
2022-11-14T03:29:36.616Z,9.60
2022-11-14T03:32:21.733Z,8.90
2022-11-14T03:35:07.564Z,9.50
2022-11-14T03:37:56.398Z,8.97
2022-11-14T03:40:44.742Z,9.00
2022-11-14T03:43:32.956Z,9.30
2022-11-14T03:46:18.168Z,8.60
2022-11-14T03:49:04.123Z,9.73
2022-11-14T03:51:50.566Z,9.17
2022-11-14T03:54:35.559Z,9.67
2022-11-14T03:57:20.673Z,9.27
2022-11-14T04:00:11.818Z,9.50
2022-11-14T04:02:57.564Z,11.37
2022-11-14T04:05:46.282Z,9.97
2022-11-14T04:08:32.862Z,9.30
2022-11-14T04:11:19.183Z,9.90
2022-11-14T04:14:04.921Z,10.93
2022-11-14T04:16:50.292Z,10.03
2022-11-14T04:19:35.348Z,9.50
2022-11-14T04:22:20.672Z,9.10
2022-11-14T04:25:07.588Z,8.77
2022-11-14T04:27:52.934Z,9.00
2022-11-14T04:30:38.843Z,8.90
2022-11-14T04:33:23.952Z,8.97
2022-11-14T04:36:12.173Z,9.10
2022-11-14T04:38:57.665Z,8.83
2022-11-14T04:41:43.118Z,9.53
2022-11-14T04:44:28.359Z,8.23
2022-11-14T04:47:13.392Z,7.87
2022-11-14T04:49:58.944Z,8.73
2022-11-14T04:52:44.141Z,9.03
2022-11-14T04:55:29.474Z,9.63
2022-11-14T04:58:14.848Z,9.37
2022-11-14T05:01:00.572Z,8.97
2022-11-14T05:03:46.201Z,8.97
2022-11-14T05:06:31.613Z,9.10
2022-11-14T05:09:17.016Z,8.93
2022-11-14T05:12:03.801Z,9.33
2022-11-14T05:14:49.109Z,9.00
2022-11-14T05:17:35.005Z,8.60
2022-11-14T05:20:20.357Z,7.67
2022-11-14T05:23:05.796Z,9.10
2022-11-14T05:26:01.906Z,8.93
2022-11-14T05:28:47.201Z,9.20
2022-11-14T05:31:32.636Z,8.93
2022-11-14T05:34:17.867Z,9.00
2022-11-14T05:37:04.057Z,9.30
2022-11-14T05:39:49.265Z,8.80
2022-11-14T05:42:34.863Z,8.67
2022-11-14T05:45:20.313Z,9.33
2022-11-14T05:48:06.002Z,9.77
2022-11-14T05:50:55.975Z,9.63
2022-11-14T05:53:41.549Z,8.90
2022-11-14T05:56:27.892Z,9.77
2022-11-14T05:59:13.617Z,9.67
2022-11-14T06:01:58.991Z,9.67
2022-11-14T06:04:44.287Z,9.50
2022-11-14T06:07:31.178Z,8.30
2022-11-14T06:10:16.852Z,9.10
2022-11-14T06:13:02.932Z,8.37
2022-11-14T06:15:48.015Z,9.27
2022-11-14T06:18:34.222Z,8.20
2022-11-14T06:21:21.705Z,8.87
2022-11-14T06:24:09.570Z,7.63
2022-11-14T06:26:54.704Z,9.00
2022-11-14T06:29:40.071Z,8.50
2022-11-14T06:32:25.586Z,8.70
2022-11-14T06:35:11.085Z,8.87
2022-11-14T06:37:56.639Z,7.97
2022-11-14T06:40:41.788Z,8.23
2022-11-14T06:43:29.649Z,8.90
2022-11-14T06:46:18.208Z,8.67
2022-11-14T06:49:03.668Z,8.80
2022-11-14T06:51:49.081Z,9.03
2022-11-14T06:54:34.364Z,7.90
2022-11-14T06:57:19.663Z,8.70
2022-11-14T07:00:05.739Z,9.50
2022-11-14T07:02:51.121Z,8.37
2022-11-14T07:05:36.520Z,7.70
2022-11-14T07:08:22.089Z,7.13
2022-11-14T07:11:12.599Z,8.43
2022-11-14T07:14:03.622Z,6.90
2022-11-14T07:16:49.467Z,7.13
2022-11-14T07:19:34.969Z,6.53
2022-11-14T07:22:20.479Z,8.80
2022-11-14T07:25:06.536Z,7.43
2022-11-14T07:27:51.624Z,7.63
2022-11-14T07:30:37.072Z,7.03
2022-11-14T07:33:22.492Z,7.23
2022-11-14T07:36:09.084Z,6.70
2022-11-14T07:38:54.605Z,9.80
2022-11-14T07:41:40.843Z,8.60
2022-11-14T07:44:27.160Z,8.27
2022-11-14T07:47:12.404Z,6.97
2022-11-14T07:49:57.648Z,7.27
2022-11-14T07:52:50.472Z,7.30
2022-11-14T07:55:36.925Z,7.60
2022-11-14T07:58:22.441Z,6.93
2022-11-14T08:01:09.954Z,7.77
2022-11-14T08:03:55.208Z,8.30
2022-11-14T08:06:40.403Z,7.80
2022-11-14T08:09:26.187Z,8.67
2022-11-14T08:12:13.304Z,7.87
2022-11-14T08:14:58.563Z,7.93
2022-11-14T08:17:44.164Z,7.10
2022-11-14T08:20:29.744Z,7.90
2022-11-14T08:23:17.623Z,7.40
2022-11-14T08:26:02.980Z,7.83
2022-11-14T08:28:48.347Z,7.43
2022-11-14T08:31:33.650Z,7.00
2022-11-14T08:34:18.976Z,7.73
2022-11-14T08:37:04.517Z,7.67
2022-11-14T08:39:49.909Z,7.40
2022-11-14T08:42:35.296Z,7.83
2022-11-14T08:45:20.415Z,8.13
2022-11-14T08:48:06.232Z,8.07
2022-11-14T08:50:51.607Z,7.93
2022-11-14T08:53:49.264Z,7.53
2022-11-14T08:56:34.820Z,7.53
2022-11-14T08:59:20.260Z,8.00
2022-11-14T09:02:05.473Z,7.93
2022-11-14T09:04:50.970Z,7.40
2022-11-14T09:07:37.167Z,7.20
2022-11-14T09:10:22.560Z,8.23
2022-11-14T09:13:07.999Z,8.23
2022-11-14T09:15:53.347Z,7.87
2022-11-14T09:18:38.705Z,7.73
2022-11-14T09:21:24.839Z,7.80
2022-11-14T09:24:10.297Z,8.23
2022-11-14T09:26:57.189Z,8.03
2022-11-14T09:29:42.775Z,8.23
2022-11-14T09:32:30.784Z,7.93
2022-11-14T09:35:16.540Z,7.13
2022-11-14T09:38:04.674Z,7.70
2022-11-14T09:40:49.961Z,8.00
2022-11-14T09:44:10.016Z,7.70
2022-11-14T09:47:03.012Z,6.63
2022-11-14T09:49:51.513Z,7.37
2022-11-14T09:52:40.456Z,7.53
2022-11-14T09:55:37.265Z,7.33
2022-11-14T09:58:23.247Z,7.80
2022-11-14T10:01:45.925Z,7.63
2022-11-14T10:05:02.506Z,7.37
2022-11-14T10:08:02.312Z,7.40
2022-11-14T10:10:55.961Z,8.67
2022-11-14T10:14:08.040Z,12.43
2022-11-14T10:17:12.201Z,9.17
2022-11-14T10:20:20.272Z,13.80
2022-11-14T10:23:24.218Z,12.40
2022-11-14T10:26:23.302Z,9.47
2022-11-14T10:29:40.763Z,10.47
2022-11-14T10:32:46.714Z,8.63
2022-11-14T10:35:39.447Z,15.40
2022-11-14T10:38:32.163Z,13.77
2022-11-14T10:41:41.935Z,17.00
2022-11-14T10:44:30.969Z,9.43
2022-11-14T10:47:21.489Z,7.80
2022-11-14T10:50:25.634Z,7.13
2022-11-14T10:53:24.871Z,8.37
2022-11-14T10:56:15.263Z,7.57
2022-11-14T10:59:00.504Z,8.00
2022-11-14T11:01:54.737Z,6.90
2022-11-14T11:04:43.878Z,9.93
2022-11-14T11:07:48.588Z,16.20
2022-11-14T11:10:57.701Z,7.73
2022-11-14T11:13:55.649Z,7.00
2022-11-14T11:16:42.261Z,8.87
2022-11-14T11:19:28.041Z,7.13
2022-11-14T11:22:27.549Z,7.17
2022-11-14T11:25:33.011Z,6.23
2022-11-14T11:28:26.940Z,12.13
2022-11-14T11:31:12.365Z,10.77
2022-11-14T11:34:03.287Z,6.90
2022-11-14T11:36:58.567Z,5.77
2022-11-14T11:39:57.903Z,10.23
2022-11-14T11:45:55.601Z,9.57
2022-11-14T11:48:41.077Z,5.23
2022-11-14T11:51:27.313Z,4.80
2022-11-14T11:54:19.562Z,4.40
2022-11-14T11:57:21.726Z,5.13
2022-11-14T12:00:16.756Z,5.57
2022-11-14T12:03:02.407Z,5.43
2022-11-14T12:05:57.029Z,5.97
2022-11-14T12:09:10.055Z,8.37
2022-11-14T12:12:01.375Z,6.53
2022-11-14T12:15:11.403Z,7.00
2022-11-14T12:18:15.860Z,7.80
2022-11-14T12:21:32.425Z,8.37
2022-11-14T12:24:47.507Z,9.43
2022-11-14T12:28:04.294Z,9.00
2022-11-14T12:30:53.568Z,6.33
2022-11-14T12:33:47.602Z,6.67
2022-11-14T12:36:34.909Z,6.47
2022-11-14T12:39:30.142Z,6.00
2022-11-14T12:42:20.726Z,6.60
2022-11-14T12:45:40.258Z,7.70
2022-11-14T12:48:25.277Z,6.00
2022-11-14T12:51:25.525Z,8.37
2022-11-14T12:54:42.856Z,9.33
2022-11-14T12:57:57.382Z,6.43
2022-11-14T13:00:45.516Z,6.57
2022-11-14T13:03:59.592Z,6.17
2022-11-14T13:07:29.773Z,5.90
2022-11-14T13:10:44.609Z,7.20
2022-11-14T13:13:48.444Z,5.50
2022-11-14T13:16:52.352Z,5.63
2022-11-14T13:20:05.090Z,5.73
2022-11-14T13:22:50.335Z,5.00
2022-11-14T13:25:35.765Z,5.73
2022-11-14T13:28:45.439Z,5.67
2022-11-14T13:31:50.035Z,4.90
2022-11-14T13:34:54.394Z,5.37
2022-11-14T13:37:48.403Z,5.80
2022-11-14T13:40:59.452Z,5.30
2022-11-14T13:43:53.605Z,5.20
2022-11-14T13:46:50.613Z,5.27
2022-11-14T13:49:59.221Z,4.40
2022-11-14T13:52:47.716Z,6.87
2022-11-14T13:55:45.229Z,7.70
2022-11-14T13:59:21.060Z,5.97
2022-11-14T14:02:52.099Z,7.03
2022-11-14T14:06:12.740Z,6.97
2022-11-14T14:08:57.708Z,5.97
2022-11-14T14:12:15.387Z,7.40
2022-11-14T14:15:38.070Z,7.30
2022-11-14T14:18:40.510Z,10.13
2022-11-14T14:21:40.389Z,9.30
2022-11-14T14:24:28.143Z,7.43
2022-11-14T14:27:24.009Z,7.00
2022-11-14T14:30:14.620Z,9.20
2022-11-14T14:33:14.464Z,8.20
2022-11-14T14:35:59.783Z,8.50
2022-11-14T14:38:45.729Z,6.63
2022-11-14T14:41:32.377Z,7.67
2022-11-14T14:44:19.711Z,7.00
2022-11-14T14:47:43.772Z,5.67
2022-11-14T14:50:40.771Z,6.03
2022-11-14T14:53:34.958Z,7.10
2022-11-14T14:56:22.709Z,10.43
2022-11-14T14:59:19.675Z,7.30
2022-11-14T15:02:16.329Z,7.17
2022-11-14T15:05:02.797Z,8.10
2022-11-14T15:07:50.013Z,7.40
2022-11-14T15:10:35.412Z,5.17
2022-11-14T15:13:22.820Z,6.37
2022-11-14T15:16:09.211Z,6.57
2022-11-14T15:18:56.604Z,7.43
2022-11-14T15:21:43.188Z,7.80
2022-11-14T15:24:28.372Z,6.57
2022-11-14T15:27:19.224Z,6.50
2022-11-14T15:30:07.402Z,10.97
2022-11-14T15:32:55.014Z,8.40
2022-11-14T15:35:41.591Z,7.47
2022-11-14T15:41:35.825Z,9.73
2022-11-14T15:44:34.405Z,10.30
2022-11-14T15:47:25.583Z,14.33
2022-11-14T15:50:13.888Z,9.57
2022-11-14T15:53:14.576Z,13.30
2022-11-14T15:55:59.558Z,10.00
2022-11-14T15:58:49.375Z,7.40
2022-11-14T16:01:37.645Z,9.63
2022-11-14T16:04:32.177Z,6.03
2022-11-14T16:07:18.103Z,8.77
2022-11-14T16:10:03.573Z,6.07
2022-11-14T16:12:52.392Z,5.83
2022-11-14T16:15:38.479Z,7.70
2022-11-14T16:18:23.945Z,7.83
2022-11-14T16:21:16.784Z,9.00
2022-11-14T16:24:01.942Z,21.53
2022-11-14T16:26:50.392Z,7.53
2022-11-14T16:29:35.563Z,7.47
2022-11-14T16:32:23.263Z,6.00
2022-11-14T16:35:29.125Z,6.37
2022-11-14T16:38:14.994Z,6.40
2022-11-14T16:41:02.776Z,6.47
2022-11-14T16:43:47.885Z,6.37
2022-11-14T16:46:33.215Z,5.77
2022-11-14T16:49:19.890Z,5.63
2022-11-14T16:52:08.390Z,5.93
2022-11-14T16:54:54.497Z,5.90
2022-11-14T16:57:40.657Z,6.87
2022-11-14T17:00:27.577Z,7.70
2022-11-14T17:03:13.059Z,6.00
2022-11-14T17:05:58.320Z,7.33
2022-11-14T17:08:43.783Z,6.33
2022-11-14T17:11:28.926Z,5.83
2022-11-14T17:14:14.534Z,5.30
2022-11-14T17:17:02.691Z,6.03
2022-11-14T17:19:48.230Z,6.13
2022-11-14T17:22:33.542Z,5.07
2022-11-14T17:25:19.035Z,7.60
2022-11-14T17:28:04.420Z,4.90
2022-11-14T17:30:50.768Z,6.40
2022-11-14T17:33:36.867Z,6.00
2022-11-14T17:36:23.250Z,5.57
2022-11-14T17:39:08.721Z,6.60
2022-11-14T17:41:54.166Z,5.40
2022-11-14T17:44:39.736Z,6.67
2022-11-14T17:47:24.828Z,5.53
2022-11-14T17:50:10.629Z,5.70
2022-11-14T17:52:55.867Z,5.20
2022-11-14T17:55:41.053Z,5.10
2022-11-14T17:58:30.740Z,5.63
2022-11-14T18:01:19.170Z,5.40
2022-11-14T18:04:06.340Z,6.53
2022-11-14T18:06:52.873Z,5.60
2022-11-14T18:09:39.706Z,5.30
2022-11-14T18:12:24.881Z,6.07
2022-11-14T18:15:10.307Z,5.17
2022-11-14T18:17:55.864Z,5.90
2022-11-14T18:20:41.051Z,7.37
2022-11-14T18:23:26.242Z,5.53
2022-11-14T18:26:16.788Z,6.20
2022-11-14T18:29:02.265Z,7.17
2022-11-14T18:31:48.231Z,6.93
2022-11-14T18:34:33.232Z,7.23
2022-11-14T18:37:18.347Z,8.17
2022-11-14T18:40:04.144Z,5.70
2022-11-14T18:42:49.250Z,6.60
2022-11-14T18:45:34.922Z,5.37
2022-11-14T18:48:20.152Z,5.63
2022-11-14T18:51:12.322Z,6.23
2022-11-14T18:53:59.294Z,6.30
2022-11-14T18:56:45.213Z,5.47
2022-11-14T18:59:30.333Z,5.47
2022-11-14T19:02:15.530Z,5.07
2022-11-14T19:05:01.071Z,6.93
2022-11-14T19:07:47.011Z,6.27
2022-11-14T19:10:32.420Z,5.30
2022-11-14T19:13:17.527Z,5.57
2022-11-14T19:16:07.655Z,6.80
2022-11-14T19:18:54.598Z,6.00
2022-11-14T19:21:40.631Z,6.90
2022-11-14T19:24:27.194Z,5.83
2022-11-14T19:27:13.942Z,6.63
2022-11-14T19:29:58.924Z,7.30
2022-11-14T19:32:44.343Z,5.97
2022-11-14T19:35:29.562Z,9.27
2022-11-14T19:38:14.719Z,7.87
2022-11-14T19:41:09.057Z,6.47
2022-11-14T19:43:55.512Z,8.87
2022-11-14T19:46:44.340Z,6.10
2022-11-14T19:49:32.845Z,8.33
2022-11-14T19:52:18.438Z,6.00
2022-11-14T19:55:04.046Z,4.80
2022-11-14T19:57:49.403Z,6.70
2022-11-14T20:00:34.531Z,6.57
2022-11-14T20:03:21.678Z,5.97
2022-11-14T20:06:18.247Z,5.10
2022-11-14T20:09:08.767Z,4.97
2022-11-14T20:11:53.848Z,6.97
2022-11-14T20:14:39.007Z,5.50
2022-11-14T20:17:24.263Z,6.37
2022-11-14T20:20:10.839Z,6.40
2022-11-14T20:22:56.214Z,5.47
2022-11-14T20:25:41.592Z,6.17
2022-11-14T20:28:27.024Z,5.20
2022-11-14T20:31:17.758Z,5.00
2022-11-14T20:34:02.741Z,4.77
2022-11-14T20:39:54.085Z,6.13
2022-11-14T20:42:39.323Z,5.53
2022-11-14T20:45:25.212Z,5.43
2022-11-14T20:48:12.425Z,5.70
2022-11-14T20:51:10.485Z,5.80
2022-11-14T20:53:56.140Z,7.27
2022-11-14T20:56:41.598Z,5.50
2022-11-14T20:59:27.173Z,10.57
2022-11-14T21:02:13.122Z,11.60
2022-11-14T21:04:59.306Z,7.13
2022-11-14T21:07:44.738Z,6.03
2022-11-14T21:10:47.797Z,8.73
2022-11-14T21:13:56.368Z,6.37
2022-11-14T21:16:41.824Z,7.43
2022-11-14T21:19:29.221Z,6.27
2022-11-14T21:22:14.756Z,7.20
2022-11-14T21:25:01.744Z,6.70
2022-11-14T21:27:46.958Z,9.40
2022-11-14T21:30:32.872Z,6.23
2022-11-14T21:33:18.193Z,9.20
2022-11-14T21:36:37.659Z,7.70
2022-11-14T21:39:16.863Z,4.73
2022-11-14T21:42:02.955Z,8.13
2022-11-14T21:44:48.120Z,5.93
2022-11-14T21:47:33.637Z,8.63
2022-11-14T21:50:18.876Z,8.97
2022-11-14T21:53:15.612Z,5.10
2022-11-14T21:56:12.810Z,8.83
2022-11-14T21:59:15.311Z,5.90
2022-11-14T22:02:21.450Z,7.93
2022-11-14T22:05:06.940Z,4.40
2022-11-14T22:07:52.093Z,6.40
2022-11-14T22:10:37.210Z,4.80
2022-11-14T22:13:22.505Z,4.43
2022-11-14T22:16:09.126Z,4.63
2022-11-14T22:18:56.299Z,5.97
2022-11-14T22:21:43.565Z,4.37
2022-11-14T22:24:28.948Z,6.07
2022-11-14T22:27:14.153Z,3.63
2022-11-14T22:29:59.246Z,3.87
2022-11-14T22:32:44.755Z,4.00
2022-11-14T22:35:37.578Z,4.40
2022-11-14T22:38:22.927Z,4.77
2022-11-14T22:41:12.425Z,3.90
2022-11-14T22:43:58.593Z,3.73
2022-11-14T22:46:44.328Z,5.00
2022-11-14T22:49:29.877Z,4.90
2022-11-14T22:52:15.462Z,4.00
2022-11-14T22:55:01.197Z,4.67
2022-11-14T22:57:47.753Z,3.87
2022-11-14T23:00:34.219Z,4.90
2022-11-14T23:03:20.865Z,4.57
2022-11-14T23:06:11.108Z,5.53
2022-11-14T23:08:56.762Z,4.60
2022-11-14T23:11:42.426Z,4.10
2022-11-14T23:14:27.578Z,4.67
2022-11-14T23:17:12.970Z,4.60
2022-11-14T23:19:58.195Z,4.23
2022-11-14T23:22:43.447Z,4.70
2022-11-14T23:25:28.994Z,6.70
2022-11-14T23:28:14.389Z,5.77
2022-11-14T23:31:01.952Z,4.73
2022-11-14T23:33:53.017Z,4.63
2022-11-14T23:36:38.198Z,4.23
2022-11-14T23:39:23.310Z,4.47
2022-11-14T23:42:08.639Z,4.17
2022-11-14T23:44:54.059Z,7.10
2022-11-14T23:47:39.465Z,6.30
2022-11-14T23:50:25.015Z,5.53
2022-11-14T23:53:11.516Z,9.47
2022-11-14T23:55:59.443Z,6.43
2022-11-14T23:58:44.683Z,12.47
